SHT23C EGLL-EGJB
Flight info
| Callsign | SHT23C |
|---|---|
| Flight time | 0h 33m |
| Altitude | 18000 |
| Route | GASGU N866 SAM N63 LELNA |
| Aircraft | A319/M-SDE3FGHIRWY/LB1 |
Departure
| Time | 2026-04-20 14:47 |
|---|---|
| Airport | London Heathrow Airport (EGLL) |
Arrival
| Time | 2026-04-20 15:20 |
|---|---|
| Airport | Guernsey Airport (EGJB) |
| Time | Latitude | Longitude | Altitude | Speed | Heading |
|---|---|---|---|---|---|
| 2026-04-20 14:21 | 51.46926 | -0.48789 | 86 ft | 0 kts | 359° |
| 2026-04-20 14:39 | 51.46914 | -0.48789 | 88 ft | 3 kts | 359° |
| 2026-04-20 14:39 | 51.46895 | -0.48788 | 86 ft | 3 kts | 343° |
| 2026-04-20 14:39 | 51.46880 | -0.48775 | 88 ft | 3 kts | 297° |
| 2026-04-20 14:40 | 51.46876 | -0.48754 | 86 ft | 1 kts | 269° |
| 2026-04-20 14:40 | 51.46876 | -0.48730 | 88 ft | 3 kts | 269° |
| 2026-04-20 14:40 | 51.46876 | -0.48704 | 86 ft | 1 kts | 269° |
| 2026-04-20 14:40 | 51.46876 | -0.48702 | 86 ft | 0 kts | 269° |
| 2026-04-20 14:43 | 51.46876 | -0.48703 | 86 ft | 1 kts | 269° |
| 2026-04-20 14:43 | 51.46873 | -0.48731 | 88 ft | 4 kts | 248° |
| 2026-04-20 14:44 | 51.46840 | -0.48750 | 86 ft | 7 kts | 181° |
| 2026-04-20 14:44 | 51.46786 | -0.48749 | 86 ft | 9 kts | 177° |
| 2026-04-20 14:44 | 51.46714 | -0.48748 | 86 ft | 12 kts | 180° |
| 2026-04-20 14:44 | 51.46628 | -0.48752 | 87 ft | 11 kts | 190° |
| 2026-04-20 14:45 | 51.46596 | -0.48770 | 89 ft | 0 kts | 199° |
| 2026-04-20 14:45 | 51.46594 | -0.48771 | 88 ft | 2 kts | 199° |
| 2026-04-20 14:45 | 51.46560 | -0.48786 | 87 ft | 8 kts | 190° |
| 2026-04-20 14:46 | 51.46493 | -0.48744 | 87 ft | 14 kts | 131° |
| 2026-04-20 14:46 | 51.46478 | -0.48538 | 86 ft | 31 kts | 89° |
| 2026-04-20 14:46 | 51.46482 | -0.47847 | 88 ft | 92 kts | 90° |
| 2026-04-20 14:46 | 51.46487 | -0.46515 | 90 ft | 145 kts | 89° |
| 2026-04-20 14:47 | 51.46474 | -0.44773 | 507 ft | 159 kts | 89° |
| 2026-04-20 14:47 | 51.46471 | -0.42988 | 1194 ft | 160 kts | 86° |
| 2026-04-20 14:47 | 51.46293 | -0.41158 | 1692 ft | 181 kts | 113° |
| 2026-04-20 14:48 | 51.44674 | -0.37320 | 2551 ft | 234 kts | 121° |
| 2026-04-20 14:48 | 51.43680 | -0.35128 | 3333 ft | 250 kts | 128° |
| 2026-04-20 14:48 | 51.42270 | -0.33424 | 4343 ft | 262 kts | 152° |
| 2026-04-20 14:48 | 51.40467 | -0.32759 | 5386 ft | 272 kts | 178° |
| 2026-04-20 14:49 | 51.38590 | -0.33352 | 5840 ft | 281 kts | 204° |
| 2026-04-20 14:49 | 51.37023 | -0.35195 | 5991 ft | 281 kts | 223° |
| 2026-04-20 14:49 | 51.35596 | -0.37321 | 6006 ft | 281 kts | 222° |
| 2026-04-20 14:49 | 51.34149 | -0.39456 | 6666 ft | 284 kts | 222° |
| 2026-04-20 14:50 | 51.32681 | -0.41601 | 7575 ft | 288 kts | 223° |
| 2026-04-20 14:50 | 51.31230 | -0.43871 | 8603 ft | 290 kts | 232° |
| 2026-04-20 14:50 | 51.30193 | -0.46617 | 9637 ft | 289 kts | 249° |
| 2026-04-20 14:50 | 51.29597 | -0.49668 | 10539 ft | 294 kts | 257° |
| 2026-04-20 14:51 | 51.29023 | -0.52942 | 10872 ft | 318 kts | 257° |
| 2026-04-20 14:51 | 51.28405 | -0.56434 | 11353 ft | 332 kts | 257° |
| 2026-04-20 14:51 | 51.27749 | -0.59997 | 12128 ft | 337 kts | 256° |
| 2026-04-20 14:51 | 51.27055 | -0.63586 | 12990 ft | 339 kts | 255° |
| 2026-04-20 14:52 | 51.26343 | -0.67181 | 13842 ft | 341 kts | 255° |
| 2026-04-20 14:52 | 51.25622 | -0.70805 | 14625 ft | 343 kts | 255° |
| 2026-04-20 14:52 | 51.24900 | -0.74449 | 15367 ft | 345 kts | 256° |
| 2026-04-20 14:52 | 51.24178 | -0.78118 | 16120 ft | 347 kts | 256° |
| 2026-04-20 14:53 | 51.23453 | -0.81807 | 16863 ft | 349 kts | 257° |
| 2026-04-20 14:53 | 51.22727 | -0.85510 | 17621 ft | 351 kts | 257° |
| 2026-04-20 14:53 | 51.21993 | -0.89251 | 18133 ft | 353 kts | 257° |
| 2026-04-20 14:53 | 51.21136 | -0.92941 | 18257 ft | 361 kts | 250° |
| 2026-04-20 14:54 | 51.19906 | -0.96500 | 18236 ft | 372 kts | 241° |
| 2026-04-20 14:54 | 51.18244 | -0.99727 | 18248 ft | 380 kts | 230° |
| 2026-04-20 14:54 | 51.16359 | -1.02689 | 18247 ft | 381 kts | 229° |
| 2026-04-20 14:54 | 51.14455 | -1.05629 | 18249 ft | 381 kts | 229° |
| 2026-04-20 14:55 | 51.12540 | -1.08556 | 18246 ft | 382 kts | 229° |
| 2026-04-20 14:55 | 51.10624 | -1.11477 | 18251 ft | 382 kts | 229° |
| 2026-04-20 14:55 | 51.08710 | -1.14392 | 18250 ft | 382 kts | 229° |
| 2026-04-20 14:55 | 51.06791 | -1.17320 | 18250 ft | 382 kts | 229° |
| 2026-04-20 14:56 | 51.04874 | -1.20249 | 18253 ft | 382 kts | 229° |
| 2026-04-20 14:56 | 51.02962 | -1.23169 | 18251 ft | 382 kts | 229° |
| 2026-04-20 14:56 | 51.01045 | -1.26091 | 18249 ft | 382 kts | 229° |
| 2026-04-20 14:56 | 50.99219 | -1.28873 | 18249 ft | 382 kts | 229° |
| 2026-04-20 14:57 | 50.97280 | -1.31827 | 18249 ft | 382 kts | 229° |
| 2026-04-20 14:57 | 50.95225 | -1.34524 | 18249 ft | 387 kts | 219° |
| 2026-04-20 14:57 | 50.92862 | -1.36652 | 18250 ft | 392 kts | 212° |
| 2026-04-20 14:57 | 50.90423 | -1.38592 | 18250 ft | 392 kts | 212° |
| 2026-04-20 14:58 | 50.87985 | -1.40534 | 18248 ft | 392 kts | 212° |
| 2026-04-20 14:58 | 50.85548 | -1.42476 | 18225 ft | 392 kts | 211° |
| 2026-04-20 14:58 | 50.83114 | -1.44414 | 18235 ft | 391 kts | 211° |
| 2026-04-20 14:58 | 50.80685 | -1.46347 | 18243 ft | 391 kts | 212° |
| 2026-04-20 14:59 | 50.78254 | -1.48277 | 18244 ft | 391 kts | 211° |
| 2026-04-20 14:59 | 50.75823 | -1.50201 | 18248 ft | 391 kts | 211° |
| 2026-04-20 14:59 | 50.73396 | -1.52118 | 18252 ft | 391 kts | 211° |
| 2026-04-20 14:59 | 50.70966 | -1.54043 | 18247 ft | 390 kts | 211° |
| 2026-04-20 15:00 | 50.68542 | -1.55965 | 18250 ft | 390 kts | 211° |
| 2026-04-20 15:00 | 50.66115 | -1.57885 | 18257 ft | 390 kts | 211° |
| 2026-04-20 15:00 | 50.63685 | -1.59805 | 18227 ft | 390 kts | 211° |
| 2026-04-20 15:00 | 50.61266 | -1.61715 | 18244 ft | 390 kts | 211° |
| 2026-04-20 15:01 | 50.58838 | -1.63626 | 18254 ft | 389 kts | 211° |
| 2026-04-20 15:01 | 50.56420 | -1.65530 | 18257 ft | 389 kts | 211° |
| 2026-04-20 15:01 | 50.53998 | -1.67440 | 18259 ft | 389 kts | 211° |
| 2026-04-20 15:01 | 50.51574 | -1.69346 | 18259 ft | 389 kts | 211° |
| 2026-04-20 15:02 | 50.49151 | -1.71246 | 18260 ft | 389 kts | 211° |
| 2026-04-20 15:02 | 50.46727 | -1.73141 | 18261 ft | 389 kts | 211° |
| 2026-04-20 15:02 | 50.44304 | -1.75034 | 18262 ft | 389 kts | 211° |
| 2026-04-20 15:02 | 50.41883 | -1.76928 | 18262 ft | 389 kts | 211° |
| 2026-04-20 15:03 | 50.39455 | -1.78826 | 18245 ft | 389 kts | 211° |
| 2026-04-20 15:03 | 50.37037 | -1.80714 | 18251 ft | 389 kts | 211° |
| 2026-04-20 15:03 | 50.34621 | -1.82594 | 18256 ft | 389 kts | 211° |
| 2026-04-20 15:03 | 50.32193 | -1.84483 | 18246 ft | 389 kts | 211° |
| 2026-04-20 15:04 | 50.29770 | -1.86364 | 18249 ft | 388 kts | 211° |
| 2026-04-20 15:04 | 50.27317 | -1.88267 | 18251 ft | 388 kts | 211° |
| 2026-04-20 15:04 | 50.24903 | -1.90138 | 18251 ft | 388 kts | 211° |
| 2026-04-20 15:04 | 50.22485 | -1.92006 | 18252 ft | 388 kts | 210° |
| 2026-04-20 15:05 | 50.20068 | -1.93872 | 18246 ft | 388 kts | 210° |
| 2026-04-20 15:05 | 50.17650 | -1.95740 | 18240 ft | 388 kts | 210° |
| 2026-04-20 15:05 | 50.15226 | -1.97611 | 18240 ft | 388 kts | 210° |
| 2026-04-20 15:05 | 50.12811 | -1.99473 | 18238 ft | 388 kts | 210° |
| 2026-04-20 15:06 | 50.10386 | -2.01338 | 18236 ft | 388 kts | 210° |
| 2026-04-20 15:06 | 50.07965 | -2.03202 | 18238 ft | 388 kts | 210° |
| 2026-04-20 15:06 | 50.05538 | -2.05070 | 18240 ft | 389 kts | 210° |
| 2026-04-20 15:06 | 50.03126 | -2.06919 | 17972 ft | 384 kts | 210° |
| 2026-04-20 15:07 | 50.00740 | -2.08743 | 17250 ft | 377 kts | 210° |
| 2026-04-20 15:07 | 49.98700 | -2.10606 | 16789 ft | 358 kts | 219° |
| 2026-04-20 15:07 | 49.96869 | -2.13065 | 16295 ft | 339 kts | 230° |
| 2026-04-20 15:07 | 49.95350 | -2.15716 | 15834 ft | 326 kts | 232° |
| 2026-04-20 15:08 | 49.93855 | -2.18340 | 15364 ft | 325 kts | 232° |
| 2026-04-20 15:08 | 49.92356 | -2.20960 | 14897 ft | 323 kts | 232° |
| 2026-04-20 15:08 | 49.90867 | -2.23558 | 14427 ft | 322 kts | 231° |
| 2026-04-20 15:08 | 49.89388 | -2.26142 | 13958 ft | 320 kts | 231° |
| 2026-04-20 15:09 | 49.87911 | -2.28719 | 13453 ft | 318 kts | 232° |
| 2026-04-20 15:09 | 49.86449 | -2.31265 | 12995 ft | 316 kts | 231° |
| 2026-04-20 15:09 | 49.84990 | -2.33803 | 12543 ft | 315 kts | 230° |
| 2026-04-20 15:09 | 49.83535 | -2.36329 | 12081 ft | 314 kts | 230° |
| 2026-04-20 15:10 | 49.82083 | -2.38851 | 11622 ft | 313 kts | 230° |
| 2026-04-20 15:10 | 49.80639 | -2.41358 | 11165 ft | 312 kts | 230° |
| 2026-04-20 15:10 | 49.79196 | -2.43858 | 10738 ft | 310 kts | 230° |
| 2026-04-20 15:10 | 49.77785 | -2.46302 | 10605 ft | 298 kts | 229° |
| 2026-04-20 15:11 | 49.76423 | -2.48659 | 10368 ft | 292 kts | 229° |
| 2026-04-20 15:11 | 49.75079 | -2.50978 | 10141 ft | 287 kts | 229° |
| 2026-04-20 15:11 | 49.73746 | -2.53276 | 10013 ft | 287 kts | 229° |
| 2026-04-20 15:11 | 49.72846 | -2.54829 | 9915 ft | 287 kts | 229° |
| 2026-04-20 15:12 | 49.71511 | -2.57130 | 9576 ft | 289 kts | 229° |
| 2026-04-20 15:12 | 49.70044 | -2.59265 | 9139 ft | 289 kts | 216° |
| 2026-04-20 15:12 | 49.68310 | -2.60884 | 8604 ft | 293 kts | 208° |
| 2026-04-20 15:12 | 49.66561 | -2.62364 | 8310 ft | 279 kts | 208° |
| 2026-04-20 15:13 | 49.64913 | -2.63755 | 8180 ft | 261 kts | 208° |
| 2026-04-20 15:13 | 49.63332 | -2.65090 | 7670 ft | 259 kts | 208° |
| 2026-04-20 15:13 | 49.61758 | -2.66418 | 7129 ft | 257 kts | 208° |
| 2026-04-20 15:13 | 49.60194 | -2.67736 | 6594 ft | 255 kts | 207° |
| 2026-04-20 15:14 | 49.58638 | -2.69044 | 6001 ft | 254 kts | 207° |
| 2026-04-20 15:14 | 49.57083 | -2.70352 | 5399 ft | 254 kts | 205° |
| 2026-04-20 15:14 | 49.55533 | -2.71654 | 4784 ft | 253 kts | 204° |
| 2026-04-20 15:14 | 49.54036 | -2.72916 | 4274 ft | 236 kts | 205° |
| 2026-04-20 15:15 | 49.52657 | -2.74083 | 3811 ft | 217 kts | 205° |
| 2026-04-20 15:15 | 49.51370 | -2.75168 | 3346 ft | 205 kts | 202° |
| 2026-04-20 15:15 | 49.50144 | -2.76199 | 3020 ft | 199 kts | 202° |
| 2026-04-20 15:15 | 49.48926 | -2.77221 | 3033 ft | 198 kts | 202° |
| 2026-04-20 15:16 | 49.47718 | -2.78234 | 2961 ft | 197 kts | 202° |
| 2026-04-20 15:16 | 49.46516 | -2.79228 | 2834 ft | 196 kts | 200° |
| 2026-04-20 15:16 | 49.45231 | -2.79633 | 2596 ft | 183 kts | 168° |
| 2026-04-20 15:16 | 49.44083 | -2.79002 | 2481 ft | 172 kts | 139° |
| 2026-04-20 15:17 | 49.43319 | -2.77684 | 2373 ft | 158 kts | 113° |
| 2026-04-20 15:17 | 49.43051 | -2.76195 | 2220 ft | 133 kts | 91° |
| 2026-04-20 15:17 | 49.43079 | -2.74788 | 2063 ft | 126 kts | 85° |
| 2026-04-20 15:17 | 49.43118 | -2.73462 | 1901 ft | 124 kts | 85° |
| 2026-04-20 15:18 | 49.43156 | -2.72132 | 1736 ft | 124 kts | 85° |
| 2026-04-20 15:18 | 49.43195 | -2.70805 | 1565 ft | 124 kts | 84° |
| 2026-04-20 15:18 | 49.43233 | -2.69484 | 1396 ft | 123 kts | 84° |
| 2026-04-20 15:18 | 49.43270 | -2.68173 | 1224 ft | 123 kts | 84° |
| 2026-04-20 15:19 | 49.43307 | -2.66868 | 1060 ft | 121 kts | 84° |
| 2026-04-20 15:19 | 49.43343 | -2.65552 | 883 ft | 123 kts | 85° |
| 2026-04-20 15:19 | 49.43381 | -2.64203 | 701 ft | 127 kts | 84° |
| 2026-04-20 15:19 | 49.43432 | -2.62823 | 586 ft | 131 kts | 84° |
| 2026-04-20 15:20 | 49.43459 | -2.61450 | 372 ft | 125 kts | 83° |
| 2026-04-20 15:20 | 49.43495 | -2.60290 | 346 ft | 89 kts | 88° |
| 2026-04-20 15:20 | 49.43510 | -2.59763 | 344 ft | 34 kts | 88° |
| 2026-04-20 15:20 | 49.43520 | -2.59392 | 348 ft | 26 kts | 88° |
| 2026-04-20 15:21 | 49.43521 | -2.59242 | 348 ft | 10 kts | 105° |
| 2026-04-20 15:21 | 49.43446 | -2.59196 | 342 ft | 17 kts | 180° |
| 2026-04-20 15:21 | 49.43377 | -2.59234 | 337 ft | 10 kts | 237° |
| 2026-04-20 15:21 | 49.43369 | -2.59356 | 340 ft | 13 kts | 267° |
| 2026-04-20 15:22 | 49.43365 | -2.59482 | 339 ft | 10 kts | 268° |
| 2026-04-20 15:22 | 49.43346 | -2.59569 | 338 ft | 9 kts | 201° |
| 2026-04-20 15:22 | 49.43286 | -2.59564 | 340 ft | 6 kts | 177° |
| 2026-04-20 15:22 | 49.43278 | -2.59563 | 340 ft | 0 kts | 177° |